Time;durP1;ratioP1;P1;durP2;ratioP2;P2;SDS_P1;SDS_P2;PMS_P1;PMS_P2;Temp;Humidity;BMP_temperature;BMP_pressure;BME280_temperature;BME280_humidity;BME280_pressure;Samples;Min_cycle;Max_cycle;Signal;HPM_P1;HPM_P2
2023/08/22 00:00:07;;;;;;;4.43;3.60;;;27.70;53.80;;;;;;5013249;28;20473;-77
2023/08/22 00:02:35;;;;;;;4.23;3.10;;;27.80;53.80;;;;;;5013280;28;20505;-77
2023/08/22 00:05:03;;;;;;;4.30;3.33;;;27.60;54.10;;;;;;5011825;28;20511;-77
2023/08/22 00:07:31;;;;;;;5.90;3.77;;;27.80;54.30;;;;;;5012640;28;20440;-77
2023/08/22 00:09:59;;;;;;;5.07;3.30;;;27.90;53.90;;;;;;5011927;28;20570;-77
2023/08/22 00:12:26;;;;;;;5.30;3.87;;;27.70;53.80;;;;;;5011996;28;21088;-77
2023/08/22 00:14:56;;;;;;;6.10;3.40;;;27.60;54.00;;;;;;5012180;28;20448;-77
2023/08/22 00:17:24;;;;;;;4.00;3.60;;;27.50;54.40;;;;;;5012385;28;20439;-77
2023/08/22 00:19:52;;;;;;;8.73;3.63;;;27.50;54.50;;;;;;5011879;28;20490;-77
2023/08/22 00:22:20;;;;;;;4.63;3.77;;;27.20;54.60;;;;;;5012021;28;20458;-76
2023/08/22 00:24:48;;;;;;;8.77;3.77;;;27.00;55.40;;;;;;5012627;28;20539;-77
2023/08/22 00:27:16;;;;;;;11.77;3.63;;;27.00;55.40;;;;;;5012552;28;20454;-77
2023/08/22 00:29:44;;;;;;;8.30;3.33;;;27.10;55.50;;;;;;5012572;28;20518;-77
2023/08/22 00:32:14;;;;;;;8.90;3.80;;;27.20;55.30;;;;;;5013863;28;20538;-77
2023/08/22 00:34:42;;;;;;;4.13;3.40;;;27.20;55.10;;;;;;5013147;28;20514;-77
2023/08/22 00:37:10;;;;;;;4.57;3.30;;;27.30;55.10;;;;;;5012265;28;20490;-77
2023/08/22 00:39:37;;;;;;;6.63;3.17;;;27.30;55.10;;;;;;5013294;28;20560;-77
2023/08/22 00:42:06;;;;;;;4.33;3.27;;;27.30;54.60;;;;;;5012588;28;20504;-77
2023/08/22 00:44:35;;;;;;;4.60;3.30;;;27.40;55.20;;;;;;5012834;28;20477;-77
2023/08/22 00:47:02;;;;;;;3.73;3.40;;;27.50;54.80;;;;;;5012636;28;20516;-77
2023/08/22 00:49:32;;;;;;;4.13;3.27;;;27.50;54.60;;;;;;5012278;28;20547;-77
2023/08/22 00:52:00;;;;;;;4.87;3.13;;;27.40;55.30;;;;;;5012881;28;20495;-77
2023/08/22 00:54:29;;;;;;;4.90;3.60;;;27.50;54.70;;;;;;5012504;28;20444;-77
2023/08/22 00:56:57;;;;;;;4.60;3.20;;;27.40;55.30;;;;;;5012278;28;20473;-77
2023/08/22 00:59:25;;;;;;;4.50;3.20;;;27.50;55.10;;;;;;5012204;28;20461;-77
2023/08/22 01:01:54;;;;;;;3.83;3.13;;;27.50;54.60;;;;;;5012123;28;20469;-77
2023/08/22 01:04:22;;;;;;;6.47;3.37;;;27.50;55.20;;;;;;5011945;28;20482;-77
2023/08/22 01:06:54;;;;;;;6.93;2.80;;;27.50;54.90;;;;;;5012199;28;20469;-77
2023/08/22 01:09:27;;;;;;;3.67;3.00;;;27.50;55.00;;;;;;5011923;28;20479;-77
2023/08/22 01:11:58;;;;;;;5.10;2.97;;;27.50;54.70;;;;;;5011588;28;20879;-77
2023/08/22 01:14:26;;;;;;;4.27;3.27;;;27.20;54.80;;;;;;5011532;28;20522;-77
2023/08/22 01:16:54;;;;;;;7.67;3.23;;;27.10;55.70;;;;;;5011522;28;20468;-77
2023/08/22 01:19:21;;;;;;;3.90;3.30;;;27.20;55.60;;;;;;5011521;28;20521;-77
2023/08/22 01:21:51;;;;;;;10.97;3.10;;;27.30;55.50;;;;;;5011858;28;20419;-77
2023/08/22 01:24:19;;;;;;;4.10;3.00;;;27.40;55.10;;;;;;5011713;28;20551;-77
2023/08/22 01:26:47;;;;;;;3.20;3.00;;;27.50;55.10;;;;;;5011561;28;20407;-77
2023/08/22 01:29:17;;;;;;;7.00;3.40;;;27.50;55.00;;;;;;5011499;28;20469;-77
2023/08/22 01:31:49;;;;;;;5.70;3.43;;;27.30;54.90;;;;;;5011599;28;20531;-77
2023/08/22 01:34:20;;;;;;;4.67;3.27;;;27.30;55.40;;;;;;5011705;28;20440;-77
2023/08/22 01:36:52;;;;;;;8.23;3.13;;;27.30;55.30;;;;;;5011480;28;20867;-77
2023/08/22 01:39:20;;;;;;;5.90;3.57;;;27.10;55.30;;;;;;5010860;28;20525;-77
2023/08/22 01:41:48;;;;;;;6.53;3.90;;;27.10;55.70;;;;;;5011601;28;20523;-77
2023/08/22 01:44:16;;;;;;;7.83;4.70;;;27.20;56.00;;;;;;5010707;28;20455;-77
2023/08/22 01:46:43;;;;;;;8.13;4.30;;;27.30;55.50;;;;;;5011355;28;20403;-77
2023/08/22 01:49:11;;;;;;;4.33;3.80;;;27.30;55.60;;;;;;5011275;28;20530;-77
2023/08/22 01:51:39;;;;;;;7.60;4.67;;;27.30;55.60;;;;;;5011174;28;20470;-77
2023/08/22 01:54:08;;;;;;;5.10;4.03;;;27.30;56.00;;;;;;5011088;28;20515;-77
2023/08/22 01:56:37;;;;;;;4.10;3.73;;;27.30;55.80;;;;;;5011222;28;20490;-77
2023/08/22 01:59:04;;;;;;;4.80;3.70;;;27.20;55.50;;;;;;5010907;28;20513;-77
2023/08/22 02:01:32;;;;;;;7.93;4.50;;;27.20;56.20;;;;;;5010775;28;20505;-77
2023/08/22 02:04:03;;;;;;;6.77;4.70;;;27.30;56.20;;;;;;5010966;28;20443;-77
2023/08/22 02:06:31;;;;;;;5.90;4.80;;;27.40;55.50;;;;;;5010941;28;20452;-77
2023/08/22 02:08:59;;;;;;;4.83;4.30;;;27.30;55.60;;;;;;5011609;28;20446;-77
2023/08/22 02:11:29;;;;;;;7.50;5.10;;;27.30;55.30;;;;;;5011882;28;20490;-77
2023/08/22 02:13:57;;;;;;;12.00;5.60;;;27.10;55.80;;;;;;5011492;28;20426;-77
2023/08/22 02:16:25;;;;;;;9.53;4.50;;;27.10;56.60;;;;;;5011345;28;20423;-77
2023/08/22 02:18:54;;;;;;;7.10;3.57;;;27.20;56.10;;;;;;5011048;28;20439;-77
2023/08/22 02:21:22;;;;;;;7.37;6.10;;;27.20;55.70;;;;;;5010379;28;20789;-77
2023/08/22 02:23:50;;;;;;;5.97;5.23;;;27.20;56.50;;;;;;5010950;28;20446;-77
2023/08/22 02:26:18;;;;;;;8.10;5.53;;;27.20;56.30;;;;;;5011426;28;21007;-77
2023/08/22 02:28:48;;;;;;;6.43;5.77;;;27.20;55.90;;;;;;5006413;28;20468;-77
2023/08/22 02:31:16;;;;;;;7.53;5.80;;;27.20;56.00;;;;;;5015008;28;20514;-77
2023/08/22 02:33:45;;;;;;;7.13;4.97;;;27.20;56.10;;;;;;5015332;28;20451;-77
2023/08/22 02:36:13;;;;;;;7.57;5.77;;;27.20;56.50;;;;;;5015042;28;20440;-77
2023/08/22 02:38:41;;;;;;;7.00;5.40;;;27.20;56.30;;;;;;5014997;28;20530;-77
2023/08/22 02:41:09;;;;;;;10.83;4.77;;;27.30;56.10;;;;;;5014767;28;20959;-77
2023/08/22 02:43:37;;;;;;;7.03;6.33;;;27.40;56.00;;;;;;5014489;28;20501;-77
2023/08/22 02:46:10;;;;;;;6.43;4.87;;;27.50;55.60;;;;;;5015269;28;20451;-77
2023/08/22 02:48:38;;;;;;;5.93;4.07;;;27.50;55.50;;;;;;5014960;28;20506;-77
2023/08/22 02:51:06;;;;;;;4.47;3.60;;;27.40;55.30;;;;;;5014959;28;20437;-77
2023/08/22 02:53:34;;;;;;;7.20;4.70;;;26.90;55.90;;;;;;5014630;28;20483;-77
2023/08/22 02:56:04;;;;;;;6.03;4.90;;;26.80;57.10;;;;;;5014109;28;20923;-77
2023/08/22 02:58:32;;;;;;;6.90;4.87;;;26.60;56.40;;;;;;5014067;28;20460;-77
2023/08/22 03:01:00;;;;;;;7.70;5.23;;;26.50;58.30;;;;;;5014048;28;20419;-77
2023/08/22 03:03:29;;;;;;;6.23;5.00;;;26.90;57.50;;;;;;5014278;28;20475;-77
2023/08/22 03:05:58;;;;;;;6.67;5.07;;;26.80;56.60;;;;;;5013985;28;20507;-77
2023/08/22 03:08:27;;;;;;;7.80;5.50;;;26.90;57.20;;;;;;5013919;28;20523;-77
2023/08/22 03:10:59;;;;;;;9.27;5.73;;;27.00;56.70;;;;;;5014095;28;20415;-77
2023/08/22 03:13:28;;;;;;;11.80;5.77;;;27.00;56.70;;;;;;5014122;28;20502;-77
2023/08/22 03:15:57;;;;;;;6.50;5.73;;;26.80;57.00;;;;;;5013862;28;20509;-77
2023/08/22 03:18:26;;;;;;;10.37;6.00;;;26.90;56.90;;;;;;5013712;28;20464;-77
2023/08/22 03:20:57;;;;;;;7.37;5.57;;;27.00;57.20;;;;;;5013777;28;20447;-77
2023/08/22 03:23:24;;;;;;;11.30;6.73;;;27.10;57.10;;;;;;5013694;28;20506;-77
2023/08/22 03:25:58;;;;;;;8.10;6.33;;;27.10;57.10;;;;;;5013867;28;20415;-77
2023/08/22 03:28:25;;;;;;;6.20;5.07;;;26.90;56.70;;;;;;5013908;28;20932;-77
2023/08/22 03:30:57;;;;;;;10.07;5.80;;;26.80;57.40;;;;;;5014092;28;20415;-77
2023/08/22 03:33:25;;;;;;;7.70;6.03;;;26.80;57.60;;;;;;5014052;28;20422;-77
2023/08/22 03:35:56;;;;;;;10.93;6.07;;;26.80;57.90;;;;;;5014696;28;20513;-77
2023/08/22 03:38:24;;;;;;;7.97;5.17;;;26.90;57.50;;;;;;5014246;28;20466;-77
2023/08/22 03:40:52;;;;;;;6.50;5.40;;;26.90;57.30;;;;;;5013701;28;21003;-77
2023/08/22 03:43:20;;;;;;;9.00;5.40;;;26.90;57.20;;;;;;5013715;28;20543;-77
2023/08/22 03:45:48;;;;;;;9.70;5.80;;;27.00;57.40;;;;;;5014535;28;20539;-77
2023/08/22 03:48:16;;;;;;;10.53;5.47;;;27.00;57.50;;;;;;5014965;28;20454;-77
2023/08/22 03:50:45;;;;;;;9.17;6.00;;;27.00;57.30;;;;;;5014528;28;20554;-77
2023/08/22 03:53:14;;;;;;;10.90;6.40;;;27.10;57.40;;;;;;5014877;28;20415;-77
2023/08/22 03:55:42;;;;;;;10.07;5.90;;;27.00;57.30;;;;;;5014961;28;20454;-77
2023/08/22 03:58:11;;;;;;;6.73;6.00;;;27.00;57.60;;;;;;5014429;28;20502;-77
2023/08/22 04:00:39;;;;;;;10.60;8.30;;;26.90;57.50;;;;;;5014671;28;20458;-77
2023/08/22 04:03:08;;;;;;;12.10;8.20;;;26.90;58.10;;;;;;5014897;28;20456;-77
2023/08/22 04:05:36;;;;;;;21.93;13.90;;;26.90;58.10;;;;;;5013901;28;20537;-77
2023/08/22 04:08:05;;;;;;;15.77;9.83;;;27.00;58.20;;;;;;5014094;28;20448;-77
2023/08/22 04:10:35;;;;;;;26.93;15.60;;;26.70;58.00;;;;;;5014601;28;20555;-78
2023/08/22 04:13:04;;;;;;;21.70;12.03;;;26.80;58.70;;;;;;5014349;28;20453;-78
2023/08/22 04:15:35;;;;;;;14.43;8.43;;;26.90;58.30;;;;;;5014132;28;20435;-79
2023/08/22 04:18:02;;;;;;;8.83;7.27;;;27.00;58.30;;;;;;5014385;28;20481;-78
2023/08/22 04:20:31;;;;;;;7.40;6.63;;;27.00;58.10;;;;;;5014052;28;20422;-79
2023/08/22 04:22:58;;;;;;;11.00;7.00;;;27.00;58.20;;;;;;5013756;28;20407;-79
2023/08/22 04:25:27;;;;;;;35.70;25.47;;;27.00;58.10;;;;;;5013861;28;20467;-79
2023/08/22 04:27:57;;;;;;;51.50;36.90;;;27.10;58.30;;;;;;5014893;28;20494;-79
2023/08/22 04:30:25;;;;;;;49.53;34.73;;;27.10;58.00;;;;;;5014312;28;20461;-78
2023/08/22 04:32:53;;;;;;;60.90;41.23;;;27.10;57.90;;;;;;5013777;28;20514;-79
2023/08/22 04:35:21;;;;;;;45.00;33.43;;;27.00;58.40;;;;;;5008232;28;20483;-78
2023/08/22 04:37:50;;;;;;;49.83;32.03;;;27.00;58.10;;;;;;5009137;28;20424;-78
2023/08/22 04:40:18;;;;;;;35.60;24.17;;;27.10;58.60;;;;;;5013671;28;20460;-78
2023/08/22 04:42:47;;;;;;;40.53;27.63;;;26.80;58.00;;;;;;5013390;28;20423;-78
2023/08/22 04:45:17;;;;;;;56.30;37.53;;;26.60;59.00;;;;;;5013469;28;20509;-79
2023/08/22 04:47:45;;;;;;;35.93;25.37;;;26.80;59.20;;;;;;5013350;28;20453;-77
2023/08/22 04:50:13;;;;;;;35.00;23.40;;;26.80;58.80;;;;;;5013126;28;20427;-78
2023/08/22 04:52:41;;;;;;;28.67;20.37;;;26.40;59.50;;;;;;5015235;28;20464;-78
2023/08/22 04:55:09;;;;;;;29.90;20.83;;;26.30;60.10;;;;;;5013963;28;20489;-78
2023/08/22 04:57:37;;;;;;;33.83;24.57;;;26.50;60.30;;;;;;5013650;28;20436;-78
2023/08/22 05:00:09;;;;;;;27.17;18.17;;;26.70;59.40;;;;;;5012496;28;20536;-77
2023/08/22 05:02:38;;;;;;;28.50;14.03;;;26.80;59.60;;;;;;5013806;28;20415;-79
2023/08/22 05:05:09;;;;;;;18.30;13.33;;;26.70;59.10;;;;;;5013874;28;20442;-78
2023/08/22 05:07:37;;;;;;;18.30;13.60;;;26.70;59.40;;;;;;5013308;28;20444;-78
2023/08/22 05:10:07;;;;;;;18.10;13.77;;;26.70;59.80;;;;;;5013389;28;20472;-78
2023/08/22 05:12:34;;;;;;;16.73;9.83;;;26.80;59.90;;;;;;5013478;28;20915;-79
2023/08/22 05:15:03;;;;;;;13.87;9.30;;;26.90;59.30;;;;;;5005068;28;20503;-78
2023/08/22 05:17:31;;;;;;;15.00;8.60;;;26.70;59.60;;;;;;5013233;28;20437;-79
2023/08/22 05:20:00;;;;;;;10.93;7.93;;;26.50;59.60;;;;;;5012675;28;20448;-79
2023/08/22 05:22:28;;;;;;;11.23;8.43;;;26.40;60.20;;;;;;5012928;28;20461;-78
2023/08/22 05:24:56;;;;;;;10.00;8.10;;;26.50;60.90;;;;;;5013343;28;20592;-77
2023/08/22 05:27:24;;;;;;;12.30;8.40;;;26.60;59.80;;;;;;5012658;28;20448;-79
2023/08/22 05:29:52;;;;;;;8.73;6.93;;;26.40;60.00;;;;;;5012462;28;20499;-78
2023/08/22 05:32:20;;;;;;;11.93;7.03;;;26.40;60.50;;;;;;5012514;28;20504;-78
2023/08/22 05:34:51;;;;;;;11.47;7.07;;;26.30;61.80;;;;;;5012698;28;20449;-78
2023/08/22 05:37:20;;;;;;;10.40;6.23;;;26.50;60.40;;;;;;5009032;28;20431;-79
2023/08/22 05:39:48;;;;;;;8.77;6.40;;;26.30;60.40;;;;;;5013074;28;20466;-78
2023/08/22 05:42:16;;;;;;;8.50;6.30;;;26.40;61.00;;;;;;5011769;28;20527;-78
2023/08/22 05:44:44;;;;;;;8.37;6.47;;;26.30;60.80;;;;;;5010691;28;22415;-79
2023/08/22 05:47:11;;;;;;;13.77;7.23;;;26.10;61.10;;;;;;5011965;28;20861;-79
2023/08/22 05:49:43;;;;;;;8.60;7.00;;;26.00;61.10;;;;;;5012148;28;20442;-78
2023/08/22 05:52:11;;;;;;;11.53;6.97;;;26.10;61.70;;;;;;5012686;28;20451;-79
2023/08/22 05:54:41;;;;;;;11.80;6.73;;;25.90;61.70;;;;;;5011971;28;20438;-78
2023/08/22 05:57:09;;;;;;;10.90;7.30;;;25.90;62.10;;;;;;5011656;28;20513;-78
2023/08/22 05:59:37;;;;;;;10.80;7.10;;;25.90;62.00;;;;;;5011555;28;20540;-79
2023/08/22 06:02:05;;;;;;;11.47;7.20;;;25.90;62.10;;;;;;5013766;28;20442;-78
2023/08/22 06:04:33;;;;;;;10.57;8.83;;;26.00;61.80;;;;;;5014519;28;20464;-78
2023/08/22 06:07:01;;;;;;;19.60;8.47;;;25.80;62.30;;;;;;5012888;28;20757;-78
2023/08/22 06:09:29;;;;;;;10.97;7.90;;;25.60;62.80;;;;;;5011713;28;20502;-78
2023/08/22 06:11:59;;;;;;;10.87;7.57;;;25.80;62.60;;;;;;5011677;28;20490;-79
2023/08/22 06:14:28;;;;;;;13.40;8.20;;;25.90;62.40;;;;;;5011917;28;20458;-78
2023/08/22 06:16:55;;;;;;;10.20;7.33;;;26.10;63.00;;;;;;5011858;28;20421;-79
2023/08/22 06:19:23;;;;;;;18.80;7.90;;;26.10;62.60;;;;;;5011862;28;20431;-78
2023/08/22 06:21:52;;;;;;;13.77;8.50;;;26.10;62.00;;;;;;5012162;28;20475;-79
2023/08/22 06:24:19;;;;;;;9.80;7.27;;;26.10;63.20;;;;;;5011921;28;21000;-78
2023/08/22 06:26:48;;;;;;;19.07;8.40;;;26.40;62.60;;;;;;5011653;28;20599;-78
2023/08/22 06:29:17;;;;;;;15.20;8.77;;;26.20;61.60;;;;;;5011777;28;20459;-79
2023/08/22 06:31:45;;;;;;;16.23;8.43;;;26.10;62.10;;;;;;5011687;28;20915;-78
2023/08/22 06:34:13;;;;;;;8.93;6.60;;;26.30;62.10;;;;;;5011368;28;20478;-79
2023/08/22 06:36:41;;;;;;;10.10;6.77;;;26.60;62.10;;;;;;5007115;28;20530;-79
2023/08/22 06:39:09;;;;;;;11.50;6.70;;;26.70;61.80;;;;;;5002952;28;20543;-79
2023/08/22 06:41:37;;;;;;;15.47;7.17;;;26.90;60.70;;;;;;5010974;28;20473;-79
2023/08/22 06:44:09;;;;;;;11.83;7.40;;;26.90;60.70;;;;;;5010965;28;20475;-78
2023/08/22 06:46:40;;;;;;;17.13;6.13;;;26.90;61.20;;;;;;5021031;28;20479;-79
2023/08/22 06:49:09;;;;;;;14.80;8.80;;;27.00;60.90;;;;;;5011697;28;20547;-78
2023/08/22 06:51:37;;;;;;;13.17;7.30;;;27.00;59.70;;;;;;5011804;28;20442;-79
2023/08/22 06:54:05;;;;;;;15.43;7.60;;;26.80;60.50;;;;;;5016217;28;20459;-79
2023/08/22 06:56:33;;;;;;;13.33;8.33;;;26.90;60.10;;;;;;5017126;28;20455;-79
2023/08/22 06:59:01;;;;;;;13.33;7.17;;;26.60;60.10;;;;;;5016298;28;20529;-79
2023/08/22 07:01:29;;;;;;;10.23;7.27;;;26.90;60.90;;;;;;5013561;28;20431;-79
2023/08/22 07:03:59;;;;;;;17.63;7.53;;;27.10;60.20;;;;;;5010944;28;20419;-79
2023/08/22 07:06:43;;;;;;;10.90;5.70;;;27.20;59.70;;;;;;5011462;28;20446;-79
2023/08/22 07:09:11;;;;;;;5.90;5.30;;;27.30;59.60;;;;;;5003370;28;20468;-79
2023/08/22 07:11:39;;;;;;;11.97;5.33;;;27.50;59.30;;;;;;5011746;28;20497;-79
2023/08/22 07:14:08;;;;;;;8.07;6.20;;;27.60;59.10;;;;;;5016996;28;20457;-79
2023/08/22 07:16:36;;;;;;;16.90;6.30;;;27.50;59.10;;;;;;5018712;28;20492;-77
2023/08/22 07:19:06;;;;;;;8.87;4.93;;;27.50;59.50;;;;;;5020609;28;20478;-78
2023/08/22 07:21:34;;;;;;;8.90;6.37;;;27.70;59.10;;;;;;5016456;28;20511;-79
2023/08/22 07:24:04;;;;;;;12.27;5.17;;;27.70;58.70;;;;;;5015016;28;20465;-79
2023/08/22 07:26:32;;;;;;;11.50;8.87;;;27.70;58.50;;;;;;5015012;28;20468;-79
2023/08/22 07:29:00;;;;;;;9.50;6.67;;;27.80;58.50;;;;;;5018787;28;20452;-79
2023/08/22 07:31:28;;;;;;;7.70;4.43;;;27.80;58.80;;;;;;5014817;28;20454;-79
2023/08/22 07:33:56;;;;;;;11.57;6.03;;;28.00;58.80;;;;;;5015681;28;20452;-79
2023/08/22 07:36:26;;;;;;;13.97;6.70;;;28.00;58.40;;;;;;5022775;28;20523;-79
2023/08/22 07:38:55;;;;;;;8.57;5.37;;;27.90;58.40;;;;;;5022800;28;20449;-78
2023/08/22 07:41:22;;;;;;;5.93;4.47;;;27.80;59.80;;;;;;5027160;28;20473;-78
2023/08/22 07:43:51;;;;;;;5.60;4.20;;;28.10;58.90;;;;;;5027215;28;20464;-78
2023/08/22 07:46:19;;;;;;;5.03;4.30;;;28.30;58.30;;;;;;5025485;28;21020;-78
2023/08/22 07:48:47;;;;;;;15.93;5.10;;;28.60;57.70;;;;;;5017733;28;20472;-79
2023/08/22 07:51:15;;;;;;;4.87;3.63;;;28.70;56.80;;;;;;5015929;28;20497;-79
2023/08/22 07:53:45;;;;;;;9.93;5.07;;;28.80;57.20;;;;;;5020338;28;20450;-78
2023/08/22 07:56:12;;;;;;;8.83;3.90;;;28.90;56.80;;;;;;5021506;28;20471;-80
2023/08/22 07:58:41;;;;;;;10.33;5.00;;;29.00;56.00;;;;;;5020273;28;20465;-79
2023/08/22 08:01:09;;;;;;;9.17;4.10;;;28.80;55.50;;;;;;5021210;28;20475;-79
2023/08/22 08:03:40;;;;;;;6.47;5.10;;;28.70;56.30;;;;;;5021214;28;20452;-80
2023/08/22 08:06:08;;;;;;;9.87;4.70;;;28.80;55.70;;;;;;5017729;28;20558;-80
2023/08/22 08:08:36;;;;;;;6.17;3.77;;;28.80;56.30;;;;;;5019739;28;20518;-81
2023/08/22 08:11:06;;;;;;;10.93;5.20;;;29.10;56.30;;;;;;5020125;28;20472;-81
2023/08/22 08:13:36;;;;;;;8.63;3.87;;;29.20;54.80;;;;;;5023935;28;20506;-81
2023/08/22 08:16:07;;;;;;;6.63;5.00;;;29.20;55.90;;;;;;5025302;28;20423;-80
2023/08/22 08:18:36;;;;;;;8.70;4.13;;;29.10;54.30;;;;;;5017119;28;20442;-80
2023/08/22 08:21:06;;;;;;;7.67;4.27;;;29.00;54.20;;;;;;5021903;28;20454;-81
2023/08/22 08:23:35;;;;;;;3.80;3.20;;;28.80;54.30;;;;;;5017151;28;20479;-79
2023/08/22 08:26:07;;;;;;;6.00;3.37;;;29.10;54.40;;;;;;5020658;28;20452;-80
2023/08/22 08:28:36;;;;;;;7.20;2.97;;;29.50;53.80;;;;;;5020896;28;20474;-80
2023/08/22 08:31:04;;;;;;;6.03;2.70;;;29.60;52.50;;;;;;5020688;28;20480;-80
2023/08/22 08:33:36;;;;;;;5.83;2.63;;;29.70;52.90;;;;;;5018692;28;20498;-79
2023/08/22 08:36:05;;;;;;;2.20;1.83;;;29.80;50.90;;;;;;5016809;28;20418;-80
2023/08/22 08:38:34;;;;;;;8.33;2.00;;;29.80;51.00;;;;;;5026802;28;20436;-79
2023/08/22 08:41:05;;;;;;;1.67;1.50;;;29.90;50.00;;;;;;5022105;28;20543;-81
2023/08/22 08:44:00;;;;;;;4.57;1.57;;;30.20;49.60;;;;;;5027820;28;20447;-81
2023/08/22 08:46:41;;;;;;;2.40;1.30;;;30.40;48.80;;;;;;5016155;28;20468;-82
2023/08/22 08:49:28;;;;;;;1.53;1.30;;;30.50;47.70;;;;;;5004353;28;20503;-81
2023/08/22 08:52:12;;;;;;;1.77;1.03;;;30.60;46.70;;;;;;5029557;28;20819;-80
2023/08/22 08:55:04;;;;;;;1.90;1.17;;;30.60;45.70;;;;;;5012223;28;20419;-80
2023/08/22 08:57:49;;;;;;;1.20;1.00;;;30.70;45.30;;;;;;5010723;28;20440;-80
2023/08/22 09:00:19;;;;;;;1.73;0.90;;;30.90;44.70;;;;;;5016131;28;20479;-79
2023/08/22 09:02:47;;;;;;;1.00;1.00;;;30.90;44.30;;;;;;5015928;28;20484;-78
2023/08/22 09:05:15;;;;;;;1.43;1.23;;;31.00;44.90;;;;;;5015717;28;20426;-78
2023/08/22 09:07:44;;;;;;;3.93;1.30;;;31.20;44.70;;;;;;5015044;28;20994;-78
2023/08/22 09:10:13;;;;;;;2.60;1.30;;;31.30;44.70;;;;;;5015276;28;20457;-77
2023/08/22 09:12:41;;;;;;;1.23;1.00;;;31.30;44.30;;;;;;5015722;28;20476;-79
2023/08/22 09:15:10;;;;;;;3.13;0.97;;;31.30;43.90;;;;;;5019411;28;20452;-79
2023/08/22 09:17:40;;;;;;;3.43;1.20;;;31.40;43.40;;;;;;5016123;28;20468;-78
2023/08/22 09:20:10;;;;;;;1.77;0.90;;;31.40;42.40;;;;;;5014118;28;20525;-77
2023/08/22 09:22:39;;;;;;;6.37;1.00;;;31.50;42.50;;;;;;5014600;28;20419;-77
2023/08/22 09:25:07;;;;;;;2.30;1.20;;;31.60;41.80;;;;;;5014115;28;20535;-77
2023/08/22 09:27:36;;;;;;;2.70;1.20;;;31.70;41.30;;;;;;5013820;28;20563;-77
2023/08/22 09:30:05;;;;;;;1.73;0.90;;;31.70;41.50;;;;;;5013114;28;20479;-77
2023/08/22 09:32:34;;;;;;;1.67;0.90;;;31.70;41.00;;;;;;5013327;28;20452;-77
2023/08/22 09:35:04;;;;;;;3.57;0.90;;;31.80;41.30;;;;;;5014264;28;20916;-77
2023/08/22 09:37:33;;;;;;;1.73;1.10;;;31.90;40.70;;;;;;5012873;28;20448;-77
2023/08/22 09:40:03;;;;;;;1.37;0.77;;;32.10;40.90;;;;;;5013524;28;20484;-77
2023/08/22 09:42:31;;;;;;;1.50;0.80;;;32.30;40.00;;;;;;5006565;28;21003;-77
2023/08/22 09:44:59;;;;;;;1.00;0.97;;;32.30;39.40;;;;;;5013861;28;20436;-78
2023/08/22 09:47:29;;;;;;;2.40;2.30;;;32.40;39.30;;;;;;5013443;28;20519;-78
2023/08/22 09:50:00;;;;;;;7.47;6.13;;;32.50;39.30;;;;;;5013537;28;20439;-78
2023/08/22 09:52:29;;;;;;;4.60;3.50;;;32.60;40.20;;;;;;5014571;28;20471;-78
2023/08/22 09:54:57;;;;;;;2.73;2.53;;;32.80;40.10;;;;;;5013654;28;20487;-78
2023/08/22 09:57:26;;;;;;;3.00;1.77;;;33.10;39.90;;;;;;5013379;28;20452;-78
2023/08/22 09:59:53;;;;;;;2.70;1.20;;;33.30;39.10;;;;;;5013115;28;20483;-78
2023/08/22 10:02:21;;;;;;;2.80;1.17;;;33.40;39.40;;;;;;5013313;28;20467;-78
2023/08/22 10:04:50;;;;;;;0.90;0.90;;;33.60;38.50;;;;;;5013975;28;20828;-78
2023/08/22 10:07:18;;;;;;;2.30;1.10;;;33.80;38.80;;;;;;5012734;28;20511;-78
2023/08/22 10:09:48;;;;;;;2.43;1.73;;;34.00;38.40;;;;;;5007609;28;20484;-78
2023/08/22 10:12:15;;;;;;;4.13;1.47;;;34.20;38.40;;;;;;5013244;28;20436;-78
2023/08/22 10:14:44;;;;;;;1.70;1.60;;;34.30;37.90;;;;;;5013149;28;20532;-78
2023/08/22 10:17:13;;;;;;;1.60;1.50;;;34.50;37.70;;;;;;5014277;28;20471;-78
2023/08/22 10:19:41;;;;;;;3.17;1.10;;;34.50;37.10;;;;;;5005628;28;20518;-78
2023/08/22 10:22:12;;;;;;;5.90;1.30;;;34.40;36.50;;;;;;5006275;28;20453;-78
2023/08/22 10:24:41;;;;;;;4.87;1.10;;;34.50;36.30;;;;;;5013839;28;20542;-78
2023/08/22 10:27:12;;;;;;;1.90;1.50;;;34.40;35.40;;;;;;5018480;28;20479;-78
2023/08/22 10:29:45;;;;;;;2.70;1.10;;;34.40;35.30;;;;;;5015103;28;20540;-78
2023/08/22 10:32:25;;;;;;;1.33;1.23;;;34.40;35.70;;;;;;5013487;28;20436;-78
2023/08/22 10:35:07;;;;;;;1.20;1.03;;;34.50;35.40;;;;;;5013063;28;20459;-78
2023/08/22 10:37:44;;;;;;;3.10;1.20;;;34.70;36.00;;;;;;5005612;28;20424;-78
2023/08/22 10:40:19;;;;;;;4.97;0.93;;;34.90;36.10;;;;;;5013210;28;20484;-78
2023/08/22 10:42:52;;;;;;;3.80;1.00;;;35.00;35.70;;;;;;5013181;28;20486;-78
2023/08/22 10:45:20;;;;;;;3.30;3.00;;;35.10;35.90;;;;;;5013537;28;20531;-78
2023/08/22 10:47:48;;;;;;;3.90;3.57;;;35.30;35.40;;;;;;5013690;28;20480;-79
2023/08/22 10:50:17;;;;;;;5.03;4.50;;;35.20;35.20;;;;;;5016646;28;20542;-79
2023/08/22 10:52:45;;;;;;;5.40;4.27;;;35.10;35.60;;;;;;5020743;28;20468;-79
2023/08/22 10:55:14;;;;;;;2.57;2.37;;;35.10;36.30;;;;;;5019284;28;20483;-79
2023/08/22 10:57:42;;;;;;;5.43;2.20;;;35.10;37.00;;;;;;5019807;28;20464;-79
2023/08/22 11:00:21;;;;;;;2.63;1.30;;;35.30;36.00;;;;;;5019890;28;20463;-80
2023/08/22 11:02:50;;;;;;;3.23;2.07;;;35.20;36.00;;;;;;5019102;28;20440;-81
2023/08/22 11:05:18;;;;;;;4.03;2.07;;;35.10;35.90;;;;;;5022440;28;20440;-79
2023/08/22 11:07:48;;;;;;;2.73;1.93;;;35.10;36.00;;;;;;5020047;28;20522;-80
2023/08/22 11:10:18;;;;;;;3.03;1.30;;;35.30;36.10;;;;;;5023717;28;20804;-79
2023/08/22 11:12:46;;;;;;;2.97;1.20;;;35.30;36.00;;;;;;5020099;28;20431;-80
2023/08/22 11:15:16;;;;;;;3.87;1.30;;;35.30;35.70;;;;;;5024352;28;20436;-80
2023/08/22 11:17:46;;;;;;;2.30;1.30;;;35.40;35.90;;;;;;5020028;28;20482;-79
2023/08/22 11:20:17;;;;;;;1.80;1.20;;;35.30;35.50;;;;;;5019443;28;20545;-79
2023/08/22 11:22:46;;;;;;;1.97;1.23;;;35.30;35.50;;;;;;5020140;28;20466;-79
2023/08/22 11:25:15;;;;;;;1.83;1.50;;;35.40;35.60;;;;;;5022621;28;20449;-81
2023/08/22 11:27:43;;;;;;;1.53;1.20;;;35.60;36.00;;;;;;5020701;28;20463;-80
2023/08/22 11:30:19;;;;;;;1.63;1.03;;;36.00;36.20;;;;;;5020467;28;20479;-80
2023/08/22 11:32:47;;;;;;;1.60;1.50;;;36.30;35.60;;;;;;5012716;28;20428;-80
2023/08/22 11:35:16;;;;;;;2.30;1.10;;;36.40;35.80;;;;;;5020987;28;20489;-80
2023/08/22 11:37:56;;;;;;;3.23;1.30;;;36.50;35.00;;;;;;5021852;28;20444;-80
2023/08/22 11:40:46;;;;;;;4.80;1.47;;;36.60;34.10;;;;;;5019874;28;20441;-80
2023/08/22 11:43:16;;;;;;;2.30;1.20;;;36.60;34.30;;;;;;5017683;28;20444;-81
2023/08/22 11:49:22;;;;;;;3.00;1.60;;;36.70;34.30;;;;;;5015623;28;20452;-81
2023/08/22 11:52:04;;;;;;;2.83;1.30;;;36.70;34.40;;;;;;4986504;28;20514;-80
2023/08/22 11:54:52;;;;;;;4.23;1.53;;;36.80;33.90;;;;;;5020009;28;20456;-80
2023/08/22 11:57:25;;;;;;;5.80;1.30;;;36.80;33.30;;;;;;5020739;28;20452;-80
2023/08/22 12:00:00;;;;;;;0.90;0.90;;;36.70;33.80;;;;;;5019795;28;20472;-81
2023/08/22 12:02:30;;;;;;;1.00;1.00;;;36.90;33.50;;;;;;5019583;28;20854;-80
2023/08/22 12:05:04;;;;;;;2.73;1.10;;;37.00;33.90;;;;;;5018304;28;20476;-80
2023/08/22 12:07:42;;;;;;;2.50;1.23;;;37.20;33.70;;;;;;5019299;28;20451;-80
2023/08/22 12:10:12;;;;;;;1.33;0.90;;;37.10;32.80;;;;;;5016294;28;20464;-79
2023/08/22 12:12:40;;;;;;;1.73;1.10;;;37.00;32.40;;;;;;5016015;28;20440;-79
2023/08/22 12:15:09;;;;;;;1.80;1.23;;;37.20;32.60;;;;;;5016345;28;20432;-80
2023/08/22 12:17:38;;;;;;;1.27;1.17;;;37.30;33.00;;;;;;5018809;28;20868;-79
2023/08/22 12:20:08;;;;;;;2.50;1.00;;;37.50;32.80;;;;;;5017620;28;20531;-79
2023/08/22 12:22:37;;;;;;;1.40;1.23;;;37.60;32.70;;;;;;5026039;28;20479;-80
2023/08/22 12:25:06;;;;;;;0.90;0.90;;;37.60;32.00;;;;;;5017791;28;20459;-80
2023/08/22 12:27:34;;;;;;;4.90;1.27;;;37.50;31.70;;;;;;5018325;28;20452;-80
2023/08/22 12:30:03;;;;;;;1.23;1.23;;;37.60;31.40;;;;;;5018609;28;20460;-79
2023/08/22 12:32:33;;;;;;;2.70;1.10;;;37.60;31.20;;;;;;5023070;28;20453;-79
2023/08/22 12:35:11;;;;;;;0.93;0.93;;;37.50;31.30;;;;;;5021284;28;20444;-79
2023/08/22 12:37:42;;;;;;;1.40;1.30;;;37.50;31.30;;;;;;5016439;28;20448;-78
2023/08/22 12:40:11;;;;;;;2.50;2.40;;;37.70;31.30;;;;;;5012928;28;20495;-78
2023/08/22 12:42:47;;;;;;;1.93;1.40;;;37.80;31.50;;;;;;5014461;28;20490;-79
2023/08/22 12:45:20;;;;;;;4.07;3.40;;;37.60;31.10;;;;;;5013779;28;20448;-78
2023/08/22 12:47:48;;;;;;;1.47;1.37;;;37.40;30.40;;;;;;5012802;28;20491;-78
2023/08/22 12:50:18;;;;;;;1.53;1.33;;;37.60;31.20;;;;;;5013059;28;20541;-78
2023/08/22 12:52:45;;;;;;;1.63;1.53;;;37.80;30.90;;;;;;5012155;28;20440;-78
2023/08/22 12:55:14;;;;;;;6.80;1.70;;;38.00;31.10;;;;;;5012751;28;20448;-78
2023/08/22 12:57:42;;;;;;;1.43;1.00;;;38.10;30.90;;;;;;5013034;28;20989;-78